createdAt,value
2019-03-20T00:02:19.302Z,102972.96
2019-03-20T00:04:49.922Z,102968.78
2019-03-20T00:07:19.647Z,102975.84
2019-03-20T00:09:48.909Z,102973.54
2019-03-20T00:12:18.280Z,102980.78
2019-03-20T00:14:47.311Z,102975.36
2019-03-20T00:17:16.321Z,102972.03
2019-03-20T00:19:45.443Z,102983.27
2019-03-20T00:22:15.163Z,102978.69
2019-03-20T00:24:44.205Z,102975.25
2019-03-20T00:27:13.621Z,102974.31
2019-03-20T00:29:42.692Z,102973.90
2019-03-20T00:32:12.078Z,102975.98
2019-03-20T00:34:41.151Z,102976.13
2019-03-20T00:37:10.149Z,102978.94
2019-03-20T00:39:39.195Z,102990.38
2019-03-20T00:42:08.204Z,102989.72
2019-03-20T00:44:37.248Z,102984.97
2019-03-20T00:47:06.285Z,102981.82
2019-03-20T00:49:35.315Z,102976.79
2019-03-20T00:52:04.678Z,102978.44
2019-03-20T00:54:33.699Z,102979.60
2019-03-20T00:57:03.099Z,102979.22
2019-03-20T00:59:32.161Z,102984.74
2019-03-20T01:02:01.165Z,102987.81
2019-03-20T01:04:30.257Z,102994.30
2019-03-20T01:06:59.294Z,102997.42
2019-03-20T01:09:28.363Z,102996.75
2019-03-20T01:11:57.729Z,102998.66
2019-03-20T01:14:27.129Z,102998.08
2019-03-20T01:16:56.833Z,102971.94
2019-03-20T01:19:25.843Z,102998.30
2019-03-20T01:21:54.888Z,103004.17
2019-03-20T01:24:23.921Z,103004.66
2019-03-20T01:26:53.308Z,103007.23
2019-03-20T01:29:22.668Z,103004.58
2019-03-20T01:31:51.673Z,103005.73
2019-03-20T01:34:21.028Z,103006.67
2019-03-20T01:36:50.030Z,103003.34
2019-03-20T01:39:19.047Z,102999.05
2019-03-20T01:41:48.054Z,102991.25
2019-03-20T01:44:17.117Z,102988.50
2019-03-20T01:46:46.211Z,102993.65
2019-03-20T01:49:15.788Z,103000.09
2019-03-20T01:51:44.803Z,102997.11
2019-03-20T01:54:13.830Z,102999.48
2019-03-20T01:56:42.849Z,102996.72
2019-03-20T01:59:12.162Z,102995.34
2019-03-20T02:01:41.767Z,102991.23
2019-03-20T02:04:11.273Z,102985.61
2019-03-20T02:06:40.265Z,102980.66
2019-03-20T02:09:09.282Z,102987.47
2019-03-20T02:11:38.683Z,102992.27
2019-03-20T02:14:07.687Z,102991.98
2019-03-20T02:16:36.983Z,102993.33
2019-03-20T02:19:06.343Z,102989.91
2019-03-20T02:21:35.978Z,102985.83
2019-03-20T02:24:05.821Z,102986.09
2019-03-20T02:26:34.822Z,103000.58
2019-03-20T02:29:03.840Z,102996.59
2019-03-20T02:31:32.866Z,103006.29
2019-03-20T02:34:02.246Z,103000.66
2019-03-20T02:36:31.246Z,102994.08
2019-03-20T02:39:00.307Z,102986.84
2019-03-20T02:41:29.662Z,102981.34
2019-03-20T02:43:59.045Z,102987.16
2019-03-20T02:46:28.364Z,102984.98
2019-03-20T02:48:58.070Z,102983.08
2019-03-20T02:51:27.558Z,102973.17
2019-03-20T02:53:56.957Z,102962.83
2019-03-20T02:56:26.291Z,102965.52
2019-03-20T02:58:55.298Z,102958.58
2019-03-20T03:01:24.332Z,102959.60
2019-03-20T03:03:53.375Z,102961.69
2019-03-20T03:06:22.370Z,102959.20
2019-03-20T03:08:51.437Z,102960.29
2019-03-20T03:11:20.426Z,102952.09
2019-03-20T03:13:49.442Z,102952.11
2019-03-20T03:16:18.469Z,102950.86
2019-03-20T03:18:47.683Z,102954.08
2019-03-20T03:21:17.018Z,102948.58
2019-03-20T03:23:46.311Z,102947.50
2019-03-20T03:26:15.675Z,102944.13
2019-03-20T03:28:44.749Z,102947.38
2019-03-20T03:31:13.756Z,102945.14
2019-03-20T03:33:42.794Z,102945.94
2019-03-20T03:36:20.980Z,102952.98
2019-03-20T03:38:43.187Z,102947.96
2019-03-20T03:41:12.631Z,102942.63
2019-03-20T03:43:41.654Z,102958.69
2019-03-20T03:46:10.698Z,102957.19
2019-03-20T03:48:39.687Z,102966.86
2019-03-20T03:51:09.037Z,102965.35
2019-03-20T03:53:38.065Z,102962.20
2019-03-20T03:56:07.093Z,102961.94
2019-03-20T03:58:36.122Z,102963.63
2019-03-20T04:01:06.022Z,102966.29
2019-03-20T04:03:35.040Z,102982.48
2019-03-20T04:06:04.049Z,102978.09
2019-03-20T04:08:33.435Z,102982.09
2019-03-20T04:11:02.470Z,102987.25
2019-03-20T04:13:31.453Z,102985.15
2019-03-20T04:16:00.477Z,102986.64
2019-03-20T04:18:29.479Z,102991.80
2019-03-20T04:20:59.149Z,102993.88
2019-03-20T04:23:28.549Z,102990.08
2019-03-20T04:25:57.822Z,102995.55
2019-03-20T04:28:26.872Z,102999.95
2019-03-20T04:30:55.902Z,103003.95
2019-03-20T04:33:25.211Z,103000.13
2019-03-20T04:35:54.222Z,103001.19
2019-03-20T04:38:23.246Z,103003.34
2019-03-20T04:40:52.685Z,103013.06
2019-03-20T04:43:22.338Z,103005.64
2019-03-20T04:45:52.030Z,103004.21
2019-03-20T04:48:21.101Z,103004.90
2019-03-20T04:50:50.111Z,103005.28
2019-03-20T04:53:19.716Z,103004.72
2019-03-20T04:55:48.738Z,103003.37
2019-03-20T04:58:18.270Z,103004.52
2019-03-20T05:00:47.331Z,103000.72
2019-03-20T05:03:16.348Z,102994.00
2019-03-20T05:05:45.661Z,102991.97
2019-03-20T05:08:14.692Z,102995.33
2019-03-20T05:10:43.723Z,102987.72
2019-03-20T05:13:13.109Z,102992.24
2019-03-20T05:15:42.149Z,102999.34
2019-03-20T05:18:11.201Z,102993.06
2019-03-20T05:20:40.924Z,103004.02
2019-03-20T05:23:09.941Z,103003.80
2019-03-20T05:25:39.313Z,103001.11
2019-03-20T05:28:08.640Z,103000.80
2019-03-20T05:30:38.014Z,102998.84
2019-03-20T05:33:07.060Z,103006.03
2019-03-20T05:35:36.094Z,103015.31
2019-03-20T05:38:05.113Z,103024.42
2019-03-20T05:40:34.167Z,103033.85
2019-03-20T05:43:03.189Z,103040.83
2019-03-20T05:45:32.524Z,103039.61
2019-03-20T05:48:01.559Z,103049.80
2019-03-20T05:50:30.573Z,103055.52
2019-03-20T05:52:59.577Z,103062.11
2019-03-20T05:55:28.591Z,103068.12
2019-03-20T05:57:57.594Z,103059.02
2019-03-20T06:00:29.501Z,103058.78
2019-03-20T06:02:58.861Z,103062.21
2019-03-20T06:05:27.918Z,103066.60
2019-03-20T06:07:57.027Z,103065.99
2019-03-20T06:10:26.064Z,103071.13
2019-03-20T06:12:55.489Z,103073.78
2019-03-20T06:15:24.731Z,103068.48
2019-03-20T06:17:53.837Z,103077.98
2019-03-20T06:20:22.881Z,103076.84
2019-03-20T06:22:52.039Z,103077.65
2019-03-20T06:25:21.769Z,103078.61
2019-03-20T06:27:52.910Z,103092.12
2019-03-20T06:30:21.608Z,103099.66
2019-03-20T06:32:50.638Z,103096.72
2019-03-20T06:35:19.805Z,103102.12
2019-03-20T06:37:48.868Z,103087.36
2019-03-20T06:40:18.008Z,103091.63
2019-03-20T06:42:47.150Z,103093.00
2019-03-20T06:45:16.552Z,103093.61
2019-03-20T06:47:45.591Z,103104.61
2019-03-20T06:50:15.250Z,103109.55
2019-03-20T06:52:44.602Z,103104.98
2019-03-20T06:55:13.634Z,103101.98
2019-03-20T06:57:42.958Z,103100.84
2019-03-20T07:00:40.769Z,103109.28
2019-03-20T07:03:14.146Z,103102.78
2019-03-20T07:06:06.918Z,103106.53
2019-03-20T07:08:39.984Z,103111.61
2019-03-20T07:11:08.765Z,103109.13
2019-03-20T07:13:38.169Z,103111.97
2019-03-20T07:16:07.170Z,103115.80
2019-03-20T07:18:36.538Z,103113.31
2019-03-20T07:21:06.190Z,103123.22
2019-03-20T07:23:35.225Z,103135.61
2019-03-20T07:26:04.566Z,103141.70
2019-03-20T07:28:33.969Z,103138.47
2019-03-20T07:31:14.330Z,103143.36
2019-03-20T07:33:34.145Z,103139.59
2019-03-20T07:36:03.242Z,103134.33
2019-03-20T07:38:32.264Z,103140.58
2019-03-20T07:41:01.272Z,103144.47
2019-03-20T07:43:30.291Z,103136.47
2019-03-20T07:45:59.372Z,103144.45
2019-03-20T07:48:28.776Z,103148.61
2019-03-20T07:50:58.156Z,103156.98
2019-03-20T07:53:27.110Z,103151.78
2019-03-20T07:55:56.219Z,103157.36
2019-03-20T07:58:25.571Z,103160.50
2019-03-20T08:00:54.594Z,103163.45
2019-03-20T08:03:23.651Z,103162.13
2019-03-20T08:05:52.654Z,103160.66
2019-03-20T08:08:22.409Z,103168.81
2019-03-20T08:10:51.890Z,103169.67
2019-03-20T08:13:20.927Z,103173.83
2019-03-20T08:15:50.438Z,103171.69
2019-03-20T08:18:19.453Z,103167.45
2019-03-20T08:20:48.524Z,103170.55
2019-03-20T08:23:17.852Z,103179.71
2019-03-20T08:25:46.909Z,103172.13
2019-03-20T08:28:15.929Z,103170.94
2019-03-20T08:30:44.952Z,103183.08
2019-03-20T08:33:14.335Z,103172.33
2019-03-20T08:35:43.363Z,103166.50
2019-03-20T08:38:18.289Z,103172.08
2019-03-20T08:40:43.606Z,103164.09
2019-03-20T08:43:12.982Z,103165.16
2019-03-20T08:45:42.727Z,103162.95
2019-03-20T08:48:12.433Z,103158.34
2019-03-20T08:50:41.872Z,103159.14
2019-03-20T08:53:11.006Z,103166.42
2019-03-20T08:55:40.038Z,103160.94
2019-03-20T08:58:09.135Z,103158.05
2019-03-20T09:00:38.217Z,103158.64
2019-03-20T09:03:07.262Z,103155.10
2019-03-20T09:05:36.953Z,103156.50
2019-03-20T09:08:06.625Z,103144.50
2019-03-20T09:10:35.671Z,103151.92
2019-03-20T09:13:04.718Z,103148.22
2019-03-20T09:15:33.766Z,103150.76
2019-03-20T09:18:02.951Z,103149.07
2019-03-20T09:20:32.041Z,103152.19
2019-03-20T09:23:01.081Z,103154.20
2019-03-20T09:25:30.899Z,103161.84
2019-03-20T09:28:00.279Z,103160.97
2019-03-20T09:30:29.636Z,103161.55
2019-03-20T09:32:59.554Z,103156.48
2019-03-20T09:35:28.868Z,103162.36
2019-03-20T09:37:58.146Z,103148.42
2019-03-20T09:40:27.208Z,103162.05
2019-03-20T09:42:56.226Z,103163.62
2019-03-20T09:45:25.370Z,103167.23
2019-03-20T09:47:54.390Z,103164.62
2019-03-20T09:50:23.959Z,103162.28
2019-03-20T09:52:52.999Z,103160.59
2019-03-20T09:55:22.029Z,103161.47
2019-03-20T09:57:51.042Z,103165.00
2019-03-20T10:00:21.929Z,103162.55
2019-03-20T10:02:51.100Z,103171.70
2019-03-20T10:05:20.154Z,103168.67
2019-03-20T10:07:49.289Z,103171.09
2019-03-20T10:10:19.646Z,103185.39
2019-03-20T10:12:48.946Z,103192.72
2019-03-20T10:15:18.597Z,103192.72
2019-03-20T10:17:47.865Z,103197.83
2019-03-20T10:20:18.239Z,103185.37
2019-03-20T10:22:47.504Z,103209.55
2019-03-20T10:25:16.520Z,103209.55
2019-03-20T10:27:45.579Z,103207.55
2019-03-20T10:30:17.016Z,103209.34
2019-03-20T10:32:46.052Z,103213.42
2019-03-20T10:35:15.340Z,103217.09
2019-03-20T10:37:44.644Z,103215.83
2019-03-20T10:40:15.329Z,103215.81
2019-03-20T10:42:44.442Z,103218.41
2019-03-20T10:45:13.872Z,103224.67
2019-03-20T10:47:42.926Z,103227.83
2019-03-20T10:50:14.016Z,103221.20
2019-03-20T10:52:43.320Z,103217.84
2019-03-20T10:55:12.441Z,103216.77
2019-03-20T10:57:41.748Z,103206.70
2019-03-20T11:00:21.076Z,103203.61
2019-03-20T11:02:50.098Z,103207.77
2019-03-20T11:05:19.669Z,103218.40
2019-03-20T11:07:48.686Z,103217.05
2019-03-20T11:10:21.729Z,103221.36
2019-03-20T11:12:50.772Z,103219.65
2019-03-20T11:15:19.839Z,103227.81
2019-03-20T11:17:49.143Z,103223.04
2019-03-20T11:20:18.205Z,103226.09
2019-03-20T11:22:47.532Z,103236.20
2019-03-20T11:25:17.608Z,103232.34
2019-03-20T11:27:46.630Z,103229.70
2019-03-20T11:30:18.354Z,103240.39
2019-03-20T11:32:47.434Z,103226.95
2019-03-20T11:35:16.833Z,103253.45
2019-03-20T11:37:45.992Z,103250.38
2019-03-20T11:40:23.326Z,103247.11
2019-03-20T11:42:52.366Z,103244.97
2019-03-20T11:45:23.566Z,103244.81
2019-03-20T11:47:53.465Z,103246.55
2019-03-20T11:50:24.786Z,103242.55
2019-03-20T11:52:53.823Z,103241.81
2019-03-20T11:55:23.134Z,103239.73
2019-03-20T11:57:52.172Z,103250.67
2019-03-20T12:00:21.232Z,103250.89
2019-03-20T12:02:50.534Z,103250.81
2019-03-20T12:05:22.537Z,103254.88
2019-03-20T12:07:51.925Z,103249.08
2019-03-20T12:10:21.892Z,103246.27
2019-03-20T12:12:51.009Z,103238.52
2019-03-20T12:15:20.276Z,103237.84
2019-03-20T12:17:49.323Z,103245.02
2019-03-20T12:20:19.032Z,103240.14
2019-03-20T12:22:48.220Z,103245.27
2019-03-20T12:25:19.155Z,103248.11
2019-03-20T12:27:48.500Z,103245.04
2019-03-20T12:30:19.608Z,103241.20
2019-03-20T12:32:48.648Z,103240.31
2019-03-20T12:35:18.090Z,103238.20
2019-03-20T12:37:47.290Z,103226.42
2019-03-20T12:40:18.975Z,103220.45
2019-03-20T12:42:48.262Z,103214.59
2019-03-20T12:45:17.892Z,103216.14
2019-03-20T12:47:47.007Z,103218.14
2019-03-20T12:50:16.394Z,103218.92
2019-03-20T12:52:45.674Z,103206.65
2019-03-20T12:55:14.958Z,103210.15
2019-03-20T12:57:43.993Z,103208.30
2019-03-20T13:00:17.984Z,103202.84
2019-03-20T13:02:47.075Z,103201.45
2019-03-20T13:05:16.483Z,103206.14
2019-03-20T13:07:45.646Z,103197.38
2019-03-20T13:10:16.168Z,103203.50
2019-03-20T13:12:45.326Z,103197.25
2019-03-20T13:15:16.638Z,103193.98
2019-03-20T13:17:45.664Z,103186.50
2019-03-20T13:20:14.934Z,103195.13
2019-03-20T13:22:44.494Z,103187.54
2019-03-20T13:25:14.133Z,103184.82
2019-03-20T13:27:43.163Z,103177.67
2019-03-20T13:30:33.647Z,103174.66
2019-03-20T13:33:02.686Z,103172.81
2019-03-20T13:35:31.748Z,103172.17
2019-03-20T13:38:00.783Z,103163.95
2019-03-20T13:40:29.790Z,103170.84
2019-03-20T13:42:58.845Z,103170.16
2019-03-20T13:45:27.895Z,103164.31
2019-03-20T13:47:57.483Z,103166.05
2019-03-20T13:50:27.044Z,103162.92
2019-03-20T13:52:56.344Z,103168.51
2019-03-20T13:55:25.427Z,103172.91
2019-03-20T13:57:54.428Z,103167.04
2019-03-20T14:00:23.788Z,103159.73
2019-03-20T14:02:53.130Z,103160.89
2019-03-20T14:05:22.193Z,103160.58
2019-03-20T14:07:51.643Z,103155.50
2019-03-20T14:10:25.349Z,103151.63
2019-03-20T14:12:52.224Z,103154.44
2019-03-20T14:15:21.475Z,103148.16
2019-03-20T14:17:50.512Z,103154.02
2019-03-20T14:20:21.665Z,103145.00
2019-03-20T14:22:51.856Z,103156.08
2019-03-20T14:25:21.166Z,103148.48
2019-03-20T14:27:50.183Z,103148.73
2019-03-20T14:30:23.994Z,103152.74
2019-03-20T14:32:53.209Z,103152.76
2019-03-20T14:35:22.525Z,103152.48
2019-03-20T14:37:51.847Z,103159.42
2019-03-20T14:40:23.071Z,103153.83
2019-03-20T14:42:52.143Z,103142.53
2019-03-20T14:45:21.188Z,103148.95
2019-03-20T14:47:50.265Z,103151.66
2019-03-20T14:50:21.185Z,103138.37
2019-03-20T14:52:50.204Z,103148.27
2019-03-20T14:55:19.552Z,103142.86
2019-03-20T14:57:48.602Z,103145.46
2019-03-20T15:00:19.613Z,103145.80
2019-03-20T15:02:48.838Z,103148.47
2019-03-20T15:05:18.189Z,103145.15
2019-03-20T15:07:47.751Z,103142.91
2019-03-20T15:10:17.803Z,103135.84
2019-03-20T15:12:47.421Z,103139.64
2019-03-20T15:15:37.373Z,103133.62
2019-03-20T15:18:06.817Z,103136.73
2019-03-20T15:20:35.853Z,103126.16
2019-03-20T15:23:04.883Z,103127.73
2019-03-20T15:25:33.931Z,103130.95
2019-03-20T15:28:03.218Z,103126.81
2019-03-20T15:30:32.240Z,103125.65
2019-03-20T15:33:01.250Z,103127.47
2019-03-20T15:35:30.263Z,103126.70
2019-03-20T15:37:59.610Z,103129.70
2019-03-20T15:40:29.216Z,103124.66
2019-03-20T15:42:58.415Z,103124.42
2019-03-20T15:45:27.449Z,103113.20
2019-03-20T15:47:56.489Z,103124.48
2019-03-20T15:50:25.530Z,103119.73
2019-03-20T15:52:54.820Z,103128.66
2019-03-20T15:55:26.394Z,103134.45
2019-03-20T15:57:55.427Z,103126.98
2019-03-20T16:00:24.474Z,103121.56
2019-03-20T16:02:55.387Z,103125.75
2019-03-20T16:05:24.417Z,103125.46
2019-03-20T16:07:53.422Z,103133.98
2019-03-20T16:10:22.775Z,103135.95
2019-03-20T16:12:51.795Z,103133.20
2019-03-20T16:15:21.043Z,103142.11
2019-03-20T16:17:50.075Z,103137.17
2019-03-20T16:20:19.422Z,103135.45
2019-03-20T16:22:48.793Z,103137.97
2019-03-20T16:25:17.855Z,103131.67
2019-03-20T16:27:46.891Z,103131.92
2019-03-20T16:30:18.492Z,103126.27
2019-03-20T16:32:47.556Z,103121.44
2019-03-20T16:35:16.839Z,103124.17
2019-03-20T16:37:46.274Z,103126.23
2019-03-20T16:40:25.119Z,103129.92
2019-03-20T16:42:54.184Z,103131.84
2019-03-20T16:45:26.044Z,103125.97
2019-03-20T16:47:55.471Z,103128.84
2019-03-20T16:50:24.483Z,103128.90
2019-03-20T16:52:53.529Z,103131.37
2019-03-20T16:55:22.651Z,103135.64
2019-03-20T16:57:51.810Z,103144.61
2019-03-20T17:00:22.619Z,103142.75
2019-03-20T17:02:52.026Z,103150.61
2019-03-20T17:05:21.429Z,103156.66
2019-03-20T17:07:50.485Z,103160.29
2019-03-20T17:10:25.041Z,103156.59
2019-03-20T17:12:54.376Z,103157.22
2019-03-20T17:15:24.863Z,103158.70
2019-03-20T17:17:54.197Z,103161.64
2019-03-20T17:20:23.263Z,103157.66
2019-03-20T17:22:52.293Z,103164.23
2019-03-20T17:25:21.635Z,103169.30
2019-03-20T17:27:50.703Z,103170.53
2019-03-20T17:30:21.975Z,103170.87
2019-03-20T17:32:51.023Z,103171.58
2019-03-20T17:35:20.121Z,103161.74
2019-03-20T17:37:49.221Z,103167.53
2019-03-20T17:40:19.414Z,103164.78
2019-03-20T17:42:48.445Z,103168.22
2019-03-20T17:45:18.452Z,103168.56
2019-03-20T17:47:47.469Z,103167.78
2019-03-20T17:50:19.131Z,103172.69
2019-03-20T17:52:48.229Z,103172.33
2019-03-20T17:55:36.647Z,103178.32
2019-03-20T17:58:05.869Z,103175.30
2019-03-20T18:00:40.168Z,103185.94
2019-03-20T18:03:09.800Z,103185.83
2019-03-20T18:05:39.014Z,103185.75
2019-03-20T18:08:08.074Z,103186.72
2019-03-20T18:10:37.517Z,103186.09
2019-03-20T18:13:07.200Z,103195.13
2019-03-20T18:15:36.921Z,103187.73
2019-03-20T18:18:07.070Z,103183.69
2019-03-20T18:20:36.655Z,103186.72
2019-03-20T18:23:06.890Z,103193.89
2019-03-20T18:25:36.464Z,103193.53
2019-03-20T18:28:06.203Z,103195.95
2019-03-20T18:30:36.019Z,103194.66
2019-03-20T18:33:05.612Z,103199.73
2019-03-20T18:35:34.670Z,103202.87
2019-03-20T18:38:03.729Z,103200.80
2019-03-20T18:40:32.749Z,103203.70
2019-03-20T18:43:01.785Z,103206.39
2019-03-20T18:45:30.813Z,103210.95
2019-03-20T18:47:59.836Z,103204.93
2019-03-20T18:50:28.854Z,103202.12
2019-03-20T18:52:57.868Z,103209.90
2019-03-20T18:55:26.869Z,103207.45
2019-03-20T18:57:55.877Z,103214.53
2019-03-20T19:00:26.105Z,103208.39
2019-03-20T19:02:56.151Z,103207.25
2019-03-20T19:05:34.829Z,103207.62
2019-03-20T19:08:04.300Z,103208.34
2019-03-20T19:10:33.524Z,103206.16
2019-03-20T19:13:02.941Z,103205.86
2019-03-20T19:15:32.306Z,103210.23
2019-03-20T19:18:01.323Z,103205.47
2019-03-20T19:20:30.337Z,103206.84
2019-03-20T19:22:59.379Z,103212.02
2019-03-20T19:25:28.449Z,103212.73
2019-03-20T19:27:57.470Z,103218.03
2019-03-20T19:30:27.067Z,103208.79
2019-03-20T19:32:56.151Z,103207.53
2019-03-20T19:35:25.494Z,103206.66
2019-03-20T19:37:54.995Z,103205.63
2019-03-20T19:40:24.434Z,103214.48
2019-03-20T19:42:53.499Z,103221.91
2019-03-20T19:45:23.013Z,103220.25
2019-03-20T19:47:52.049Z,103225.04
2019-03-20T19:50:21.119Z,103221.59
2019-03-20T19:52:50.153Z,103226.15
2019-03-20T19:55:19.184Z,103224.88
2019-03-20T19:57:48.210Z,103227.48
2019-03-20T20:00:17.261Z,103231.17
2019-03-20T20:02:46.560Z,103233.81
2019-03-20T20:05:16.407Z,103238.25
2019-03-20T20:07:45.511Z,103233.70
2019-03-20T20:10:14.559Z,103235.03
2019-03-20T20:12:43.606Z,103238.88
2019-03-20T20:15:14.935Z,103239.25
2019-03-20T20:17:43.952Z,103246.58
2019-03-20T20:20:14.723Z,103246.17
2019-03-20T20:22:43.782Z,103247.09
2019-03-20T20:25:12.812Z,103240.16
2019-03-20T20:27:42.063Z,103243.99
2019-03-20T20:30:13.525Z,103250.32
2019-03-20T20:32:42.756Z,103236.18
2019-03-20T20:35:11.879Z,103259.15
2019-03-20T20:37:40.928Z,103257.94
2019-03-20T20:40:12.057Z,103253.42
2019-03-20T20:42:43.219Z,103255.73
2019-03-20T20:45:13.045Z,103252.93
2019-03-20T20:47:42.346Z,103252.57
2019-03-20T20:50:11.683Z,103250.50
2019-03-20T20:52:41.038Z,103257.45
2019-03-20T20:55:13.348Z,103257.35
2019-03-20T20:57:42.376Z,103262.73
2019-03-20T21:00:14.516Z,103259.41
2019-03-20T21:02:43.858Z,103261.86
2019-03-20T21:05:12.874Z,103254.48
2019-03-20T21:07:41.958Z,103250.33
2019-03-20T21:10:14.792Z,103258.16
2019-03-20T21:12:55.113Z,103258.38
2019-03-20T21:15:36.567Z,103258.22
2019-03-20T21:18:37.776Z,103260.81
2019-03-20T21:21:07.353Z,103257.84
2019-03-20T21:24:12.677Z,103257.73
2019-03-20T21:26:55.537Z,103256.97
2019-03-20T21:30:06.321Z,103265.50
2019-03-20T21:32:39.761Z,103265.50
2019-03-20T21:36:16.920Z,103267.21
2019-03-20T21:38:46.524Z,103261.30
2019-03-20T21:41:57.903Z,103263.63
2019-03-20T21:45:14.242Z,103266.52
2019-03-20T21:47:43.814Z,103263.70
2019-03-20T21:51:21.121Z,103263.70
2019-03-20T21:54:29.750Z,103261.97
2019-03-20T21:57:22.090Z,103261.97
2019-03-20T22:00:17.735Z,103267.14
2019-03-20T22:02:47.291Z,103267.14
2019-03-20T22:05:38.741Z,103270.13
2019-03-20T22:08:08.803Z,103264.68
2019-03-20T22:11:23.846Z,103264.68
2019-03-20T22:14:06.754Z,103260.52
2019-03-20T22:17:12.622Z,103259.59
2019-03-20T22:20:13.083Z,103264.86
2019-03-20T22:23:09.060Z,103265.55
2019-03-20T22:26:20.962Z,103261.98
2019-03-20T22:29:23.358Z,103257.67
2019-03-20T22:32:48.216Z,103272.23
2019-03-20T22:35:50.012Z,103273.72
2019-03-20T22:39:12.554Z,103262.28
2019-03-20T22:41:51.817Z,103261.21
2019-03-20T22:44:22.080Z,103265.48
2019-03-20T22:47:27.125Z,103264.83
2019-03-20T22:50:29.976Z,103254.56
2019-03-20T22:53:49.308Z,103260.13
2019-03-20T22:56:58.163Z,103250.41
2019-03-20T22:59:28.209Z,103262.73
2019-03-20T23:02:42.634Z,103266.11
2019-03-20T23:05:12.344Z,103265.16
2019-03-20T23:07:41.942Z,103261.55
2019-03-20T23:10:13.321Z,103262.16
2019-03-20T23:12:43.628Z,103257.28
2019-03-20T23:15:15.386Z,103261.77
2019-03-20T23:17:45.054Z,103264.28
2019-03-20T23:20:17.657Z,103265.80
2019-03-20T23:22:47.246Z,103269.64
2019-03-20T23:25:16.818Z,103266.97
2019-03-20T23:27:46.386Z,103263.73
2019-03-20T23:30:18.848Z,103262.40
2019-03-20T23:32:48.402Z,103267.34
2019-03-20T23:35:18.298Z,103257.99
2019-03-20T23:37:47.862Z,103258.00
2019-03-20T23:40:17.436Z,103261.03
2019-03-20T23:42:47.392Z,103254.75
2019-03-20T23:45:17.752Z,103254.94
2019-03-20T23:47:57.493Z,103249.95
2019-03-20T23:50:27.672Z,103254.75
2019-03-20T23:52:57.596Z,103258.30
2019-03-20T23:55:27.292Z,103251.31
2019-03-20T23:57:57.154Z,103256.87
